sensor_id;sensor_type;location;lat;lon;timestamp;P1;durP1;ratioP1;P2;durP2;ratioP2
29720;SDS011;23665;51.044;3.748;2023-01-04T00:00:32;3.33;;;1.87;;
29720;SDS011;23665;51.044;3.748;2023-01-04T00:02:58;5.10;;;2.33;;
29720;SDS011;23665;51.044;3.748;2023-01-04T00:05:24;3.70;;;2.23;;
29720;SDS011;23665;51.044;3.748;2023-01-04T00:07:50;8.17;;;2.63;;
29720;SDS011;23665;51.044;3.748;2023-01-04T00:10:16;4.03;;;2.10;;
29720;SDS011;23665;51.044;3.748;2023-01-04T00:12:54;4.37;;;2.20;;
29720;SDS011;23665;51.044;3.748;2023-01-04T00:15:19;10.53;;;2.70;;
29720;SDS011;23665;51.044;3.748;2023-01-04T00:17:45;7.93;;;1.83;;
29720;SDS011;23665;51.044;3.748;2023-01-04T00:20:11;3.03;;;1.73;;
29720;SDS011;23665;51.044;3.748;2023-01-04T00:22:37;4.90;;;1.57;;
29720;SDS011;23665;51.044;3.748;2023-01-04T00:25:02;2.40;;;1.33;;
29720;SDS011;23665;51.044;3.748;2023-01-04T00:27:32;7.70;;;1.63;;
29720;SDS011;23665;51.044;3.748;2023-01-04T00:30:00;6.00;;;1.90;;
29720;SDS011;23665;51.044;3.748;2023-01-04T00:32:26;8.17;;;2.00;;
29720;SDS011;23665;51.044;3.748;2023-01-04T00:34:51;7.90;;;3.37;;
29720;SDS011;23665;51.044;3.748;2023-01-04T00:37:20;2.97;;;2.03;;
29720;SDS011;23665;51.044;3.748;2023-01-04T00:39:58;4.83;;;1.87;;
29720;SDS011;23665;51.044;3.748;2023-01-04T00:42:24;3.43;;;1.43;;
29720;SDS011;23665;51.044;3.748;2023-01-04T00:44:50;3.33;;;1.63;;
29720;SDS011;23665;51.044;3.748;2023-01-04T00:47:15;4.07;;;1.60;;
29720;SDS011;23665;51.044;3.748;2023-01-04T00:49:41;4.60;;;1.53;;
29720;SDS011;23665;51.044;3.748;2023-01-04T00:52:07;3.80;;;1.70;;
29720;SDS011;23665;51.044;3.748;2023-01-04T00:54:33;3.73;;;1.60;;
29720;SDS011;23665;51.044;3.748;2023-01-04T00:56:59;5.43;;;1.40;;
29720;SDS011;23665;51.044;3.748;2023-01-04T00:59:25;6.40;;;1.63;;
29720;SDS011;23665;51.044;3.748;2023-01-04T01:01:51;8.27;;;2.23;;
29720;SDS011;23665;51.044;3.748;2023-01-04T01:04:18;5.77;;;1.70;;
29720;SDS011;23665;51.044;3.748;2023-01-04T01:06:46;4.93;;;1.93;;
29720;SDS011;23665;51.044;3.748;2023-01-04T01:09:13;6.43;;;1.60;;
29720;SDS011;23665;51.044;3.748;2023-01-04T01:11:39;3.27;;;1.27;;
29720;SDS011;23665;51.044;3.748;2023-01-04T01:14:05;5.83;;;1.63;;
29720;SDS011;23665;51.044;3.748;2023-01-04T01:16:32;3.87;;;1.33;;
29720;SDS011;23665;51.044;3.748;2023-01-04T01:18:59;4.10;;;1.43;;
29720;SDS011;23665;51.044;3.748;2023-01-04T01:21:25;5.60;;;1.50;;
29720;SDS011;23665;51.044;3.748;2023-01-04T01:23:53;5.13;;;2.23;;
29720;SDS011;23665;51.044;3.748;2023-01-04T01:26:20;3.37;;;1.13;;
29720;SDS011;23665;51.044;3.748;2023-01-04T01:28:48;5.37;;;1.00;;
29720;SDS011;23665;51.044;3.748;2023-01-04T01:31:17;3.07;;;1.80;;
29720;SDS011;23665;51.044;3.748;2023-01-04T01:33:44;3.50;;;1.40;;
29720;SDS011;23665;51.044;3.748;2023-01-04T01:36:12;2.53;;;1.70;;
29720;SDS011;23665;51.044;3.748;2023-01-04T01:38:39;7.17;;;1.67;;
29720;SDS011;23665;51.044;3.748;2023-01-04T01:41:05;2.40;;;1.23;;
29720;SDS011;23665;51.044;3.748;2023-01-04T01:46:20;2.07;;;1.10;;
29720;SDS011;23665;51.044;3.748;2023-01-04T01:49:19;2.40;;;1.03;;
29720;SDS011;23665;51.044;3.748;2023-01-04T01:51:53;3.70;;;1.33;;
29720;SDS011;23665;51.044;3.748;2023-01-04T01:54:25;4.30;;;1.60;;
29720;SDS011;23665;51.044;3.748;2023-01-04T01:56:57;5.13;;;1.23;;
29720;SDS011;23665;51.044;3.748;2023-01-04T01:59:26;5.57;;;1.20;;
29720;SDS011;23665;51.044;3.748;2023-01-04T02:01:54;5.40;;;1.57;;
29720;SDS011;23665;51.044;3.748;2023-01-04T02:04:21;6.53;;;1.20;;
29720;SDS011;23665;51.044;3.748;2023-01-04T02:06:47;6.97;;;2.07;;
29720;SDS011;23665;51.044;3.748;2023-01-04T02:09:16;6.37;;;1.40;;
29720;SDS011;23665;51.044;3.748;2023-01-04T02:11:43;2.90;;;1.07;;
29720;SDS011;23665;51.044;3.748;2023-01-04T02:14:09;5.07;;;1.53;;
29720;SDS011;23665;51.044;3.748;2023-01-04T02:25:20;3.67;;;1.40;;
29720;SDS011;23665;51.044;3.748;2023-01-04T02:33:43;3.67;;;1.10;;
29720;SDS011;23665;51.044;3.748;2023-01-04T02:36:39;3.33;;;1.33;;
29720;SDS011;23665;51.044;3.748;2023-01-04T02:41:57;4.90;;;1.53;;
29720;SDS011;23665;51.044;3.748;2023-01-04T02:47:39;5.80;;;1.33;;
29720;SDS011;23665;51.044;3.748;2023-01-04T02:50:26;4.30;;;1.40;;
29720;SDS011;23665;51.044;3.748;2023-01-04T02:52:55;2.40;;;1.33;;
29720;SDS011;23665;51.044;3.748;2023-01-04T02:55:41;5.90;;;1.73;;
29720;SDS011;23665;51.044;3.748;2023-01-04T03:01:32;3.90;;;1.30;;
29720;SDS011;23665;51.044;3.748;2023-01-04T03:07:29;3.53;;;1.27;;
29720;SDS011;23665;51.044;3.748;2023-01-04T03:13:24;2.97;;;1.27;;
29720;SDS011;23665;51.044;3.748;2023-01-04T03:16:08;4.37;;;1.50;;
29720;SDS011;23665;51.044;3.748;2023-01-04T03:18:40;2.47;;;1.73;;
29720;SDS011;23665;51.044;3.748;2023-01-04T03:21:10;6.47;;;1.40;;
29720;SDS011;23665;51.044;3.748;2023-01-04T03:23:39;4.53;;;1.20;;
29720;SDS011;23665;51.044;3.748;2023-01-04T03:26:35;3.30;;;1.30;;
29720;SDS011;23665;51.044;3.748;2023-01-04T03:29:36;5.50;;;1.40;;
29720;SDS011;23665;51.044;3.748;2023-01-04T03:32:23;2.80;;;1.20;;
29720;SDS011;23665;51.044;3.748;2023-01-04T03:35:15;2.07;;;1.20;;
29720;SDS011;23665;51.044;3.748;2023-01-04T03:37:49;3.53;;;1.50;;
29720;SDS011;23665;51.044;3.748;2023-01-04T03:40:58;2.13;;;1.10;;
29720;SDS011;23665;51.044;3.748;2023-01-04T03:43:49;3.20;;;1.07;;
29720;SDS011;23665;51.044;3.748;2023-01-04T03:46:46;5.63;;;1.40;;
29720;SDS011;23665;51.044;3.748;2023-01-04T03:49:35;4.70;;;1.47;;
29720;SDS011;23665;51.044;3.748;2023-01-04T03:52:05;3.50;;;1.50;;
29720;SDS011;23665;51.044;3.748;2023-01-04T03:54:38;4.97;;;1.23;;
29720;SDS011;23665;51.044;3.748;2023-01-04T03:57:07;3.17;;;1.07;;
29720;SDS011;23665;51.044;3.748;2023-01-04T03:59:38;3.70;;;1.43;;
29720;SDS011;23665;51.044;3.748;2023-01-04T04:02:10;3.60;;;1.30;;
29720;SDS011;23665;51.044;3.748;2023-01-04T04:04:39;3.23;;;1.40;;
29720;SDS011;23665;51.044;3.748;2023-01-04T04:07:23;5.17;;;1.07;;
29720;SDS011;23665;51.044;3.748;2023-01-04T04:10:07;5.67;;;1.27;;
29720;SDS011;23665;51.044;3.748;2023-01-04T04:12:33;6.33;;;1.47;;
29720;SDS011;23665;51.044;3.748;2023-01-04T04:14:59;2.73;;;1.07;;
29720;SDS011;23665;51.044;3.748;2023-01-04T04:17:25;2.87;;;1.00;;
29720;SDS011;23665;51.044;3.748;2023-01-04T04:19:50;3.43;;;1.23;;
29720;SDS011;23665;51.044;3.748;2023-01-04T04:22:16;5.73;;;1.43;;
29720;SDS011;23665;51.044;3.748;2023-01-04T04:24:43;4.77;;;1.43;;
29720;SDS011;23665;51.044;3.748;2023-01-04T04:27:09;3.70;;;1.33;;
29720;SDS011;23665;51.044;3.748;2023-01-04T04:29:34;4.07;;;1.30;;
29720;SDS011;23665;51.044;3.748;2023-01-04T04:32:00;3.30;;;0.93;;
29720;SDS011;23665;51.044;3.748;2023-01-04T04:34:26;5.00;;;1.40;;
29720;SDS011;23665;51.044;3.748;2023-01-04T04:36:51;2.13;;;0.90;;
29720;SDS011;23665;51.044;3.748;2023-01-04T04:39:17;3.67;;;0.90;;
29720;SDS011;23665;51.044;3.748;2023-01-04T04:41:43;4.40;;;1.07;;
29720;SDS011;23665;51.044;3.748;2023-01-04T04:44:10;3.77;;;1.00;;
29720;SDS011;23665;51.044;3.748;2023-01-04T04:46:44;2.90;;;1.00;;
29720;SDS011;23665;51.044;3.748;2023-01-04T04:49:10;2.97;;;1.30;;
29720;SDS011;23665;51.044;3.748;2023-01-04T04:51:38;2.77;;;1.17;;
29720;SDS011;23665;51.044;3.748;2023-01-04T04:54:05;5.57;;;1.07;;
29720;SDS011;23665;51.044;3.748;2023-01-04T04:56:32;3.00;;;0.93;;
29720;SDS011;23665;51.044;3.748;2023-01-04T04:58:58;1.17;;;0.90;;
29720;SDS011;23665;51.044;3.748;2023-01-04T05:01:24;1.50;;;0.87;;
29720;SDS011;23665;51.044;3.748;2023-01-04T05:03:50;1.77;;;0.93;;
29720;SDS011;23665;51.044;3.748;2023-01-04T05:06:15;3.37;;;1.27;;
29720;SDS011;23665;51.044;3.748;2023-01-04T05:08:41;1.93;;;1.07;;
29720;SDS011;23665;51.044;3.748;2023-01-04T05:11:08;2.10;;;1.10;;
29720;SDS011;23665;51.044;3.748;2023-01-04T05:13:35;3.33;;;0.90;;
29720;SDS011;23665;51.044;3.748;2023-01-04T05:16:01;2.33;;;1.07;;
29720;SDS011;23665;51.044;3.748;2023-01-04T05:18:29;3.30;;;1.20;;
29720;SDS011;23665;51.044;3.748;2023-01-04T05:20:54;2.60;;;1.10;;
29720;SDS011;23665;51.044;3.748;2023-01-04T05:23:20;1.70;;;0.87;;
29720;SDS011;23665;51.044;3.748;2023-01-04T05:25:50;4.30;;;1.27;;
29720;SDS011;23665;51.044;3.748;2023-01-04T05:28:19;1.50;;;0.90;;
29720;SDS011;23665;51.044;3.748;2023-01-04T05:30:44;4.07;;;0.93;;
29720;SDS011;23665;51.044;3.748;2023-01-04T05:33:21;1.63;;;0.80;;
29720;SDS011;23665;51.044;3.748;2023-01-04T05:35:56;1.53;;;0.80;;
29720;SDS011;23665;51.044;3.748;2023-01-04T05:38:23;2.13;;;1.00;;
29720;SDS011;23665;51.044;3.748;2023-01-04T05:40:49;2.43;;;0.93;;
29720;SDS011;23665;51.044;3.748;2023-01-04T05:43:15;4.93;;;1.23;;
29720;SDS011;23665;51.044;3.748;2023-01-04T05:45:43;1.50;;;0.90;;
29720;SDS011;23665;51.044;3.748;2023-01-04T05:48:12;2.67;;;1.00;;
29720;SDS011;23665;51.044;3.748;2023-01-04T05:50:37;1.53;;;0.87;;
29720;SDS011;23665;51.044;3.748;2023-01-04T05:53:04;1.90;;;0.97;;
29720;SDS011;23665;51.044;3.748;2023-01-04T05:55:30;1.37;;;0.90;;
29720;SDS011;23665;51.044;3.748;2023-01-04T05:57:56;1.40;;;1.00;;
29720;SDS011;23665;51.044;3.748;2023-01-04T06:00:22;2.80;;;1.10;;
29720;SDS011;23665;51.044;3.748;2023-01-04T06:02:48;2.70;;;0.97;;
29720;SDS011;23665;51.044;3.748;2023-01-04T06:05:16;2.90;;;1.27;;
29720;SDS011;23665;51.044;3.748;2023-01-04T06:07:42;4.37;;;1.00;;
29720;SDS011;23665;51.044;3.748;2023-01-04T06:10:09;1.23;;;0.90;;
29720;SDS011;23665;51.044;3.748;2023-01-04T06:12:36;4.37;;;1.37;;
29720;SDS011;23665;51.044;3.748;2023-01-04T06:15:02;3.13;;;1.00;;
29720;SDS011;23665;51.044;3.748;2023-01-04T06:17:28;1.70;;;0.77;;
29720;SDS011;23665;51.044;3.748;2023-01-04T06:19:54;3.20;;;1.00;;
29720;SDS011;23665;51.044;3.748;2023-01-04T06:22:20;3.67;;;0.83;;
29720;SDS011;23665;51.044;3.748;2023-01-04T06:24:46;5.93;;;1.20;;
29720;SDS011;23665;51.044;3.748;2023-01-04T06:27:11;2.93;;;1.03;;
29720;SDS011;23665;51.044;3.748;2023-01-04T06:29:37;2.23;;;1.13;;
29720;SDS011;23665;51.044;3.748;2023-01-04T06:32:03;1.57;;;1.00;;
29720;SDS011;23665;51.044;3.748;2023-01-04T06:34:29;2.70;;;0.67;;
29720;SDS011;23665;51.044;3.748;2023-01-04T06:36:54;1.33;;;0.60;;
29720;SDS011;23665;51.044;3.748;2023-01-04T06:39:20;0.63;;;0.50;;
29720;SDS011;23665;51.044;3.748;2023-01-04T06:41:46;3.33;;;0.90;;
29720;SDS011;23665;51.044;3.748;2023-01-04T06:44:12;3.10;;;0.90;;
29720;SDS011;23665;51.044;3.748;2023-01-04T06:46:37;4.00;;;1.20;;
29720;SDS011;23665;51.044;3.748;2023-01-04T06:49:05;1.97;;;1.27;;
29720;SDS011;23665;51.044;3.748;2023-01-04T06:51:30;1.83;;;0.90;;
29720;SDS011;23665;51.044;3.748;2023-01-04T06:53:56;2.73;;;1.83;;
29720;SDS011;23665;51.044;3.748;2023-01-04T06:56:22;5.33;;;0.97;;
29720;SDS011;23665;51.044;3.748;2023-01-04T06:58:48;1.93;;;1.00;;
29720;SDS011;23665;51.044;3.748;2023-01-04T07:01:14;3.93;;;1.00;;
29720;SDS011;23665;51.044;3.748;2023-01-04T07:03:40;1.23;;;0.70;;
29720;SDS011;23665;51.044;3.748;2023-01-04T07:06:06;5.83;;;1.60;;
29720;SDS011;23665;51.044;3.748;2023-01-04T07:08:32;2.93;;;1.20;;
29720;SDS011;23665;51.044;3.748;2023-01-04T07:10:59;3.77;;;1.20;;
29720;SDS011;23665;51.044;3.748;2023-01-04T07:13:25;3.57;;;1.13;;
29720;SDS011;23665;51.044;3.748;2023-01-04T07:15:50;3.60;;;1.10;;
29720;SDS011;23665;51.044;3.748;2023-01-04T07:18:16;4.13;;;1.50;;
29720;SDS011;23665;51.044;3.748;2023-01-04T07:20:42;3.07;;;1.30;;
29720;SDS011;23665;51.044;3.748;2023-01-04T07:23:08;2.87;;;1.30;;
29720;SDS011;23665;51.044;3.748;2023-01-04T07:25:34;3.47;;;1.20;;
29720;SDS011;23665;51.044;3.748;2023-01-04T07:28:00;3.80;;;1.40;;
29720;SDS011;23665;51.044;3.748;2023-01-04T07:30:26;3.73;;;2.13;;
29720;SDS011;23665;51.044;3.748;2023-01-04T07:32:52;3.60;;;1.30;;
29720;SDS011;23665;51.044;3.748;2023-01-04T07:35:19;4.77;;;1.23;;
29720;SDS011;23665;51.044;3.748;2023-01-04T07:37:45;7.07;;;0.93;;
29720;SDS011;23665;51.044;3.748;2023-01-04T07:40:11;5.97;;;2.43;;
29720;SDS011;23665;51.044;3.748;2023-01-04T07:42:37;5.70;;;1.97;;
29720;SDS011;23665;51.044;3.748;2023-01-04T07:45:04;4.83;;;1.20;;
29720;SDS011;23665;51.044;3.748;2023-01-04T07:47:30;4.13;;;1.27;;
29720;SDS011;23665;51.044;3.748;2023-01-04T07:49:56;2.53;;;1.30;;
29720;SDS011;23665;51.044;3.748;2023-01-04T07:52:22;5.90;;;1.20;;
29720;SDS011;23665;51.044;3.748;2023-01-04T07:54:47;6.17;;;1.20;;
29720;SDS011;23665;51.044;3.748;2023-01-04T07:57:13;3.53;;;1.40;;
29720;SDS011;23665;51.044;3.748;2023-01-04T07:59:39;3.57;;;1.40;;
29720;SDS011;23665;51.044;3.748;2023-01-04T08:02:04;5.40;;;1.23;;
29720;SDS011;23665;51.044;3.748;2023-01-04T08:04:31;3.30;;;1.50;;
29720;SDS011;23665;51.044;3.748;2023-01-04T08:06:56;3.10;;;1.30;;
29720;SDS011;23665;51.044;3.748;2023-01-04T08:09:22;4.83;;;1.50;;
29720;SDS011;23665;51.044;3.748;2023-01-04T08:11:48;3.63;;;1.13;;
29720;SDS011;23665;51.044;3.748;2023-01-04T08:14:13;8.73;;;1.80;;
29720;SDS011;23665;51.044;3.748;2023-01-04T08:16:40;4.23;;;1.50;;
29720;SDS011;23665;51.044;3.748;2023-01-04T08:19:09;9.50;;;2.23;;
29720;SDS011;23665;51.044;3.748;2023-01-04T08:21:36;3.47;;;1.17;;
29720;SDS011;23665;51.044;3.748;2023-01-04T08:24:02;4.10;;;1.90;;
29720;SDS011;23665;51.044;3.748;2023-01-04T08:26:29;3.40;;;1.47;;
29720;SDS011;23665;51.044;3.748;2023-01-04T08:28:55;4.30;;;1.37;;
29720;SDS011;23665;51.044;3.748;2023-01-04T08:31:25;4.73;;;1.60;;
29720;SDS011;23665;51.044;3.748;2023-01-04T08:33:53;3.80;;;1.40;;
29720;SDS011;23665;51.044;3.748;2023-01-04T08:36:21;4.00;;;2.73;;
29720;SDS011;23665;51.044;3.748;2023-01-04T08:38:47;4.63;;;1.60;;
29720;SDS011;23665;51.044;3.748;2023-01-04T08:41:14;7.57;;;2.40;;
29720;SDS011;23665;51.044;3.748;2023-01-04T08:43:41;6.03;;;1.37;;
29720;SDS011;23665;51.044;3.748;2023-01-04T08:46:07;8.50;;;2.73;;
29720;SDS011;23665;51.044;3.748;2023-01-04T08:48:33;7.83;;;1.83;;
29720;SDS011;23665;51.044;3.748;2023-01-04T08:51:00;4.80;;;1.37;;
29720;SDS011;23665;51.044;3.748;2023-01-04T08:53:27;2.97;;;1.37;;
29720;SDS011;23665;51.044;3.748;2023-01-04T08:55:53;4.67;;;1.10;;
29720;SDS011;23665;51.044;3.748;2023-01-04T08:58:20;5.63;;;1.77;;
29720;SDS011;23665;51.044;3.748;2023-01-04T09:00:47;7.37;;;1.63;;
29720;SDS011;23665;51.044;3.748;2023-01-04T09:03:13;7.07;;;1.47;;
29720;SDS011;23665;51.044;3.748;2023-01-04T09:05:39;4.57;;;1.50;;
29720;SDS011;23665;51.044;3.748;2023-01-04T09:08:05;4.60;;;1.57;;
29720;SDS011;23665;51.044;3.748;2023-01-04T09:10:31;5.90;;;1.37;;
29720;SDS011;23665;51.044;3.748;2023-01-04T09:12:57;12.13;;;2.30;;
29720;SDS011;23665;51.044;3.748;2023-01-04T09:15:23;8.20;;;1.87;;
29720;SDS011;23665;51.044;3.748;2023-01-04T09:17:49;3.50;;;1.90;;
29720;SDS011;23665;51.044;3.748;2023-01-04T09:20:14;5.70;;;1.90;;
29720;SDS011;23665;51.044;3.748;2023-01-04T09:22:40;4.80;;;1.47;;
29720;SDS011;23665;51.044;3.748;2023-01-04T09:25:06;8.23;;;1.77;;
29720;SDS011;23665;51.044;3.748;2023-01-04T09:27:32;7.80;;;2.10;;
29720;SDS011;23665;51.044;3.748;2023-01-04T09:29:58;7.30;;;1.87;;
29720;SDS011;23665;51.044;3.748;2023-01-04T09:32:24;6.57;;;2.07;;
29720;SDS011;23665;51.044;3.748;2023-01-04T09:34:50;4.20;;;1.50;;
29720;SDS011;23665;51.044;3.748;2023-01-04T09:37:16;6.50;;;2.10;;
29720;SDS011;23665;51.044;3.748;2023-01-04T09:39:42;6.20;;;1.20;;
29720;SDS011;23665;51.044;3.748;2023-01-04T09:45:19;3.20;;;1.30;;
29720;SDS011;23665;51.044;3.748;2023-01-04T09:53:20;10.00;;;1.70;;
29720;SDS011;23665;51.044;3.748;2023-01-04T09:56:00;3.73;;;1.80;;
29720;SDS011;23665;51.044;3.748;2023-01-04T09:58:36;2.17;;;1.07;;
29720;SDS011;23665;51.044;3.748;2023-01-04T10:01:06;5.23;;;1.60;;
29720;SDS011;23665;51.044;3.748;2023-01-04T10:03:39;8.13;;;1.73;;
29720;SDS011;23665;51.044;3.748;2023-01-04T10:06:14;3.27;;;1.40;;
29720;SDS011;23665;51.044;3.748;2023-01-04T10:08:42;4.43;;;1.13;;
29720;SDS011;23665;51.044;3.748;2023-01-04T10:11:23;5.70;;;1.10;;
29720;SDS011;23665;51.044;3.748;2023-01-04T10:14:07;3.93;;;1.47;;
29720;SDS011;23665;51.044;3.748;2023-01-04T10:17:08;2.87;;;1.60;;
29720;SDS011;23665;51.044;3.748;2023-01-04T10:23:00;3.37;;;1.30;;
29720;SDS011;23665;51.044;3.748;2023-01-04T10:28:21;4.17;;;0.90;;
29720;SDS011;23665;51.044;3.748;2023-01-04T10:36:30;2.20;;;1.13;;
29720;SDS011;23665;51.044;3.748;2023-01-04T10:38:58;2.13;;;1.17;;
29720;SDS011;23665;51.044;3.748;2023-01-04T10:41:38;2.70;;;1.07;;
29720;SDS011;23665;51.044;3.748;2023-01-04T10:47:02;3.90;;;1.50;;
29720;SDS011;23665;51.044;3.748;2023-01-04T10:52:31;5.23;;;1.60;;
29720;SDS011;23665;51.044;3.748;2023-01-04T10:55:12;3.17;;;1.07;;
29720;SDS011;23665;51.044;3.748;2023-01-04T10:57:48;3.37;;;0.80;;
29720;SDS011;23665;51.044;3.748;2023-01-04T11:02:49;1.53;;;0.70;;
29720;SDS011;23665;51.044;3.748;2023-01-04T11:05:24;2.57;;;1.00;;
29720;SDS011;23665;51.044;3.748;2023-01-04T11:08:09;2.93;;;1.20;;
29720;SDS011;23665;51.044;3.748;2023-01-04T11:10:41;3.27;;;1.40;;
29720;SDS011;23665;51.044;3.748;2023-01-04T11:13:12;4.27;;;1.40;;
29720;SDS011;23665;51.044;3.748;2023-01-04T11:15:38;1.90;;;1.00;;
29720;SDS011;23665;51.044;3.748;2023-01-04T11:18:06;4.33;;;1.33;;
29720;SDS011;23665;51.044;3.748;2023-01-04T11:20:33;2.83;;;1.30;;
29720;SDS011;23665;51.044;3.748;2023-01-04T11:23:32;5.50;;;1.53;;
29720;SDS011;23665;51.044;3.748;2023-01-04T11:25:52;2.87;;;1.33;;
29720;SDS011;23665;51.044;3.748;2023-01-04T11:28:28;2.90;;;1.00;;
29720;SDS011;23665;51.044;3.748;2023-01-04T11:31:16;3.13;;;1.20;;
29720;SDS011;23665;51.044;3.748;2023-01-04T11:34:07;2.10;;;1.20;;
29720;SDS011;23665;51.044;3.748;2023-01-04T11:36:33;3.20;;;0.90;;
29720;SDS011;23665;51.044;3.748;2023-01-04T11:39:03;2.50;;;0.90;;
29720;SDS011;23665;51.044;3.748;2023-01-04T11:41:53;2.67;;;1.07;;
29720;SDS011;23665;51.044;3.748;2023-01-04T11:44:19;2.17;;;0.90;;
29720;SDS011;23665;51.044;3.748;2023-01-04T11:46:47;3.13;;;1.20;;
29720;SDS011;23665;51.044;3.748;2023-01-04T11:49:38;2.43;;;1.10;;
29720;SDS011;23665;51.044;3.748;2023-01-04T11:52:04;4.83;;;1.00;;
29720;SDS011;23665;51.044;3.748;2023-01-04T11:54:32;3.10;;;1.30;;
29720;SDS011;23665;51.044;3.748;2023-01-04T11:57:05;3.33;;;1.03;;
29720;SDS011;23665;51.044;3.748;2023-01-04T11:59:41;1.50;;;1.10;;
29720;SDS011;23665;51.044;3.748;2023-01-04T12:04:42;1.10;;;0.70;;
29720;SDS011;23665;51.044;3.748;2023-01-04T12:07:17;2.23;;;1.30;;
29720;SDS011;23665;51.044;3.748;2023-01-04T12:09:46;4.43;;;1.63;;
29720;SDS011;23665;51.044;3.748;2023-01-04T12:12:12;1.40;;;1.00;;
29720;SDS011;23665;51.044;3.748;2023-01-04T12:14:39;1.63;;;1.00;;
29720;SDS011;23665;51.044;3.748;2023-01-04T12:17:22;2.40;;;1.27;;
29720;SDS011;23665;51.044;3.748;2023-01-04T12:19:58;2.77;;;1.10;;
29720;SDS011;23665;51.044;3.748;2023-01-04T12:22:39;2.97;;;1.40;;
29720;SDS011;23665;51.044;3.748;2023-01-04T12:25:51;1.97;;;1.00;;
29720;SDS011;23665;51.044;3.748;2023-01-04T12:27:55;1.57;;;0.97;;
29720;SDS011;23665;51.044;3.748;2023-01-04T12:30:32;2.57;;;1.10;;
29720;SDS011;23665;51.044;3.748;2023-01-04T12:35:58;5.73;;;1.67;;
29720;SDS011;23665;51.044;3.748;2023-01-04T12:49:59;3.67;;;1.47;;
29720;SDS011;23665;51.044;3.748;2023-01-04T12:54:53;4.40;;;0.87;;
29720;SDS011;23665;51.044;3.748;2023-01-04T12:57:39;3.37;;;1.10;;
29720;SDS011;23665;51.044;3.748;2023-01-04T13:00:08;4.53;;;1.13;;
29720;SDS011;23665;51.044;3.748;2023-01-04T13:02:39;4.60;;;1.03;;
29720;SDS011;23665;51.044;3.748;2023-01-04T13:07:41;4.27;;;1.10;;
29720;SDS011;23665;51.044;3.748;2023-01-04T13:18:54;16.70;;;2.00;;
29720;SDS011;23665;51.044;3.748;2023-01-04T13:23:57;6.30;;;2.00;;
29720;SDS011;23665;51.044;3.748;2023-01-04T13:26:44;10.27;;;2.37;;
29720;SDS011;23665;51.044;3.748;2023-01-04T13:29:13;16.47;;;2.30;;
29720;SDS011;23665;51.044;3.748;2023-01-04T13:39:41;9.87;;;1.77;;
29720;SDS011;23665;51.044;3.748;2023-01-04T13:47:26;10.50;;;1.90;;
29720;SDS011;23665;51.044;3.748;2023-01-04T13:49:53;10.63;;;2.13;;
29720;SDS011;23665;51.044;3.748;2023-01-04T13:52:23;10.93;;;1.80;;
29720;SDS011;23665;51.044;3.748;2023-01-04T13:54:49;14.00;;;2.60;;
29720;SDS011;23665;51.044;3.748;2023-01-04T13:57:18;8.87;;;2.17;;
29720;SDS011;23665;51.044;3.748;2023-01-04T13:59:48;12.73;;;3.67;;
29720;SDS011;23665;51.044;3.748;2023-01-04T14:02:18;13.10;;;2.20;;
29720;SDS011;23665;51.044;3.748;2023-01-04T14:04:46;12.13;;;2.07;;
29720;SDS011;23665;51.044;3.748;2023-01-04T14:07:22;7.07;;;1.77;;
29720;SDS011;23665;51.044;3.748;2023-01-04T14:09:51;12.30;;;1.67;;
29720;SDS011;23665;51.044;3.748;2023-01-04T14:12:23;7.70;;;1.73;;
29720;SDS011;23665;51.044;3.748;2023-01-04T14:14:53;10.87;;;2.40;;
29720;SDS011;23665;51.044;3.748;2023-01-04T14:19:49;12.50;;;2.30;;
29720;SDS011;23665;51.044;3.748;2023-01-04T14:24:51;17.43;;;2.30;;
29720;SDS011;23665;51.044;3.748;2023-01-04T14:27:35;13.07;;;2.30;;
29720;SDS011;23665;51.044;3.748;2023-01-04T14:33:07;8.10;;;2.17;;
29720;SDS011;23665;51.044;3.748;2023-01-04T14:35:59;8.37;;;2.47;;
29720;SDS011;23665;51.044;3.748;2023-01-04T14:38:29;7.43;;;2.07;;
29720;SDS011;23665;51.044;3.748;2023-01-04T14:41:08;13.03;;;2.60;;
29720;SDS011;23665;51.044;3.748;2023-01-04T14:46:43;9.20;;;2.23;;
29720;SDS011;23665;51.044;3.748;2023-01-04T14:49:12;13.47;;;2.27;;
29720;SDS011;23665;51.044;3.748;2023-01-04T14:54:08;8.90;;;1.60;;
29720;SDS011;23665;51.044;3.748;2023-01-04T14:56:35;5.10;;;1.43;;
29720;SDS011;23665;51.044;3.748;2023-01-04T14:59:01;8.23;;;1.60;;
29720;SDS011;23665;51.044;3.748;2023-01-04T15:01:27;8.00;;;1.60;;
29720;SDS011;23665;51.044;3.748;2023-01-04T15:03:53;16.70;;;2.47;;
29720;SDS011;23665;51.044;3.748;2023-01-04T15:06:18;10.80;;;1.80;;
29720;SDS011;23665;51.044;3.748;2023-01-04T15:08:44;10.63;;;1.70;;
29720;SDS011;23665;51.044;3.748;2023-01-04T15:11:13;13.10;;;2.00;;
29720;SDS011;23665;51.044;3.748;2023-01-04T15:13:39;16.63;;;2.80;;
29720;SDS011;23665;51.044;3.748;2023-01-04T15:16:06;11.63;;;2.30;;
29720;SDS011;23665;51.044;3.748;2023-01-04T15:18:37;16.37;;;2.77;;
29720;SDS011;23665;51.044;3.748;2023-01-04T15:21:03;15.67;;;3.30;;
29720;SDS011;23665;51.044;3.748;2023-01-04T15:23:29;19.90;;;3.60;;
29720;SDS011;23665;51.044;3.748;2023-01-04T15:25:55;20.83;;;3.70;;
29720;SDS011;23665;51.044;3.748;2023-01-04T15:28:21;20.67;;;3.10;;
29720;SDS011;23665;51.044;3.748;2023-01-04T15:30:49;28.17;;;5.17;;
29720;SDS011;23665;51.044;3.748;2023-01-04T15:33:14;16.50;;;3.30;;
29720;SDS011;23665;51.044;3.748;2023-01-04T15:35:40;20.23;;;3.63;;
29720;SDS011;23665;51.044;3.748;2023-01-04T15:38:05;31.93;;;3.57;;
29720;SDS011;23665;51.044;3.748;2023-01-04T15:40:31;24.07;;;4.50;;
29720;SDS011;23665;51.044;3.748;2023-01-04T15:42:59;22.77;;;4.90;;
29720;SDS011;23665;51.044;3.748;2023-01-04T15:47:58;28.03;;;5.30;;
29720;SDS011;23665;51.044;3.748;2023-01-04T15:50:34;24.67;;;4.60;;
29720;SDS011;23665;51.044;3.748;2023-01-04T15:53:01;29.27;;;4.27;;
29720;SDS011;23665;51.044;3.748;2023-01-04T15:55:28;24.73;;;4.57;;
29720;SDS011;23665;51.044;3.748;2023-01-04T15:57:55;27.77;;;4.83;;
29720;SDS011;23665;51.044;3.748;2023-01-04T16:00:20;21.07;;;4.17;;
29720;SDS011;23665;51.044;3.748;2023-01-04T16:02:46;35.23;;;6.57;;
29720;SDS011;23665;51.044;3.748;2023-01-04T16:05:12;34.33;;;5.57;;
29720;SDS011;23665;51.044;3.748;2023-01-04T16:07:40;33.80;;;5.47;;
29720;SDS011;23665;51.044;3.748;2023-01-04T16:10:06;26.40;;;4.77;;
29720;SDS011;23665;51.044;3.748;2023-01-04T16:12:32;43.77;;;6.77;;
29720;SDS011;23665;51.044;3.748;2023-01-04T16:15:07;37.77;;;6.17;;
29720;SDS011;23665;51.044;3.748;2023-01-04T16:17:34;30.23;;;5.47;;
29720;SDS011;23665;51.044;3.748;2023-01-04T16:20:00;40.17;;;6.50;;
29720;SDS011;23665;51.044;3.748;2023-01-04T16:22:26;34.43;;;5.63;;
29720;SDS011;23665;51.044;3.748;2023-01-04T16:24:51;27.03;;;5.23;;
29720;SDS011;23665;51.044;3.748;2023-01-04T16:27:17;37.87;;;6.27;;
29720;SDS011;23665;51.044;3.748;2023-01-04T16:29:43;24.40;;;5.53;;
29720;SDS011;23665;51.044;3.748;2023-01-04T16:32:09;34.07;;;6.60;;
29720;SDS011;23665;51.044;3.748;2023-01-04T16:34:35;33.43;;;6.07;;
29720;SDS011;23665;51.044;3.748;2023-01-04T16:37:01;43.13;;;5.63;;
29720;SDS011;23665;51.044;3.748;2023-01-04T16:39:27;38.37;;;5.60;;
29720;SDS011;23665;51.044;3.748;2023-01-04T16:41:53;33.03;;;6.33;;
29720;SDS011;23665;51.044;3.748;2023-01-04T16:44:18;46.00;;;6.37;;
29720;SDS011;23665;51.044;3.748;2023-01-04T16:46:45;52.83;;;7.30;;
29720;SDS011;23665;51.044;3.748;2023-01-04T16:49:11;37.80;;;6.43;;
29720;SDS011;23665;51.044;3.748;2023-01-04T16:51:39;41.97;;;7.40;;
29720;SDS011;23665;51.044;3.748;2023-01-04T16:54:07;33.83;;;5.77;;
29720;SDS011;23665;51.044;3.748;2023-01-04T16:56:35;30.40;;;6.37;;
29720;SDS011;23665;51.044;3.748;2023-01-04T16:59:01;33.00;;;6.60;;
29720;SDS011;23665;51.044;3.748;2023-01-04T17:01:29;40.70;;;6.20;;
29720;SDS011;23665;51.044;3.748;2023-01-04T17:03:57;42.00;;;6.53;;